sensor_id;sensor_type;location;lat;lon;timestamp;P1;durP1;ratioP1;P2;durP2;ratioP2
72464;SDS011;60471;52.150;4.508;2023-08-20T00:00:00;15.07;;;3.40;;
72464;SDS011;60471;52.150;4.508;2023-08-20T00:02:27;16.27;;;2.70;;
72464;SDS011;60471;52.150;4.508;2023-08-20T00:04:58;16.77;;;2.85;;
72464;SDS011;60471;52.150;4.508;2023-08-20T00:07:25;11.13;;;3.08;;
72464;SDS011;60471;52.150;4.508;2023-08-20T00:09:52;13.23;;;3.20;;
72464;SDS011;60471;52.150;4.508;2023-08-20T00:12:18;14.70;;;2.95;;
72464;SDS011;60471;52.150;4.508;2023-08-20T00:15:00;15.32;;;2.92;;
72464;SDS011;60471;52.150;4.508;2023-08-20T00:17:32;16.67;;;2.80;;
72464;SDS011;60471;52.150;4.508;2023-08-20T00:20:08;18.92;;;3.33;;
72464;SDS011;60471;52.150;4.508;2023-08-20T00:22:39;13.35;;;3.08;;
72464;SDS011;60471;52.150;4.508;2023-08-20T00:25:11;14.40;;;2.90;;
72464;SDS011;60471;52.150;4.508;2023-08-20T00:27:40;16.55;;;3.33;;
72464;SDS011;60471;52.150;4.508;2023-08-20T00:30:07;16.00;;;3.33;;
72464;SDS011;60471;52.150;4.508;2023-08-20T00:32:35;18.00;;;2.70;;
72464;SDS011;60471;52.150;4.508;2023-08-20T00:35:02;13.40;;;2.90;;
72464;SDS011;60471;52.150;4.508;2023-08-20T00:37:30;19.20;;;3.38;;
72464;SDS011;60471;52.150;4.508;2023-08-20T00:39:57;15.13;;;2.72;;
72464;SDS011;60471;52.150;4.508;2023-08-20T00:42:24;17.73;;;3.53;;
72464;SDS011;60471;52.150;4.508;2023-08-20T00:44:53;17.45;;;3.22;;
72464;SDS011;60471;52.150;4.508;2023-08-20T00:47:20;16.77;;;3.47;;
72464;SDS011;60471;52.150;4.508;2023-08-20T00:49:47;17.13;;;2.97;;
72464;SDS011;60471;52.150;4.508;2023-08-20T00:52:15;13.98;;;2.78;;
72464;SDS011;60471;52.150;4.508;2023-08-20T00:54:44;14.70;;;3.08;;
72464;SDS011;60471;52.150;4.508;2023-08-20T00:57:14;12.63;;;2.80;;
72464;SDS011;60471;52.150;4.508;2023-08-20T00:59:46;11.98;;;2.97;;
72464;SDS011;60471;52.150;4.508;2023-08-20T01:02:15;16.85;;;3.55;;
72464;SDS011;60471;52.150;4.508;2023-08-20T01:04:43;15.35;;;3.40;;
72464;SDS011;60471;52.150;4.508;2023-08-20T01:13:23;20.85;;;3.42;;
72464;SDS011;60471;52.150;4.508;2023-08-20T01:15:49;17.55;;;4.72;;
72464;SDS011;60471;52.150;4.508;2023-08-20T01:18:16;19.55;;;3.75;;
72464;SDS011;60471;52.150;4.508;2023-08-20T01:20:45;19.35;;;3.38;;
72464;SDS011;60471;52.150;4.508;2023-08-20T01:28:48;19.85;;;3.58;;
72464;SDS011;60471;52.150;4.508;2023-08-20T01:31:15;15.00;;;2.95;;
72464;SDS011;60471;52.150;4.508;2023-08-20T01:33:41;19.77;;;3.45;;
72464;SDS011;60471;52.150;4.508;2023-08-20T01:36:08;18.70;;;3.60;;
72464;SDS011;60471;52.150;4.508;2023-08-20T01:38:37;14.30;;;3.47;;
72464;SDS011;60471;52.150;4.508;2023-08-20T01:41:04;20.65;;;3.15;;
72464;SDS011;60471;52.150;4.508;2023-08-20T01:43:30;11.80;;;2.78;;
72464;SDS011;60471;52.150;4.508;2023-08-20T01:45:57;14.02;;;2.88;;
72464;SDS011;60471;52.150;4.508;2023-08-20T01:48:23;16.52;;;2.90;;
72464;SDS011;60471;52.150;4.508;2023-08-20T01:50:49;14.73;;;3.53;;
72464;SDS011;60471;52.150;4.508;2023-08-20T01:53:16;18.67;;;3.33;;
72464;SDS011;60471;52.150;4.508;2023-08-20T01:55:42;14.98;;;3.17;;
72464;SDS011;60471;52.150;4.508;2023-08-20T01:58:08;17.60;;;3.33;;
72464;SDS011;60471;52.150;4.508;2023-08-20T02:00:34;16.13;;;3.20;;
72464;SDS011;60471;52.150;4.508;2023-08-20T02:03:01;16.65;;;3.90;;
72464;SDS011;60471;52.150;4.508;2023-08-20T02:05:27;15.95;;;3.33;;
72464;SDS011;60471;52.150;4.508;2023-08-20T02:07:54;15.57;;;3.53;;
72464;SDS011;60471;52.150;4.508;2023-08-20T02:10:20;15.20;;;3.20;;
72464;SDS011;60471;52.150;4.508;2023-08-20T02:12:47;12.85;;;2.83;;
72464;SDS011;60471;52.150;4.508;2023-08-20T02:15:13;16.55;;;3.55;;
72464;SDS011;60471;52.150;4.508;2023-08-20T02:17:39;17.08;;;3.58;;
72464;SDS011;60471;52.150;4.508;2023-08-20T02:20:05;15.85;;;2.97;;
72464;SDS011;60471;52.150;4.508;2023-08-20T02:22:35;17.65;;;3.45;;
72464;SDS011;60471;52.150;4.508;2023-08-20T02:25:02;15.18;;;3.50;;
72464;SDS011;60471;52.150;4.508;2023-08-20T02:27:28;18.17;;;3.55;;
72464;SDS011;60471;52.150;4.508;2023-08-20T02:29:54;15.45;;;3.70;;
72464;SDS011;60471;52.150;4.508;2023-08-20T02:32:21;14.23;;;3.30;;
72464;SDS011;60471;52.150;4.508;2023-08-20T02:34:50;17.40;;;3.90;;
72464;SDS011;60471;52.150;4.508;2023-08-20T02:37:17;15.43;;;3.53;;
72464;SDS011;60471;52.150;4.508;2023-08-20T02:39:44;20.35;;;3.72;;
72464;SDS011;60471;52.150;4.508;2023-08-20T02:42:10;15.57;;;3.50;;
72464;SDS011;60471;52.150;4.508;2023-08-20T02:44:36;15.27;;;3.20;;
72464;SDS011;60471;52.150;4.508;2023-08-20T02:47:02;13.05;;;3.50;;
72464;SDS011;60471;52.150;4.508;2023-08-20T02:49:29;14.52;;;3.92;;
72464;SDS011;60471;52.150;4.508;2023-08-20T02:51:55;15.63;;;3.58;;
72464;SDS011;60471;52.150;4.508;2023-08-20T02:54:21;14.77;;;3.28;;
72464;SDS011;60471;52.150;4.508;2023-08-20T02:56:48;15.68;;;3.72;;
72464;SDS011;60471;52.150;4.508;2023-08-20T02:59:14;15.57;;;3.80;;
72464;SDS011;60471;52.150;4.508;2023-08-20T03:01:40;18.85;;;4.10;;
72464;SDS011;60471;52.150;4.508;2023-08-20T03:04:06;22.65;;;4.00;;
72464;SDS011;60471;52.150;4.508;2023-08-20T03:06:33;18.88;;;4.25;;
72464;SDS011;60471;52.150;4.508;2023-08-20T03:08:59;19.80;;;4.30;;
72464;SDS011;60471;52.150;4.508;2023-08-20T03:11:25;22.13;;;4.55;;
72464;SDS011;60471;52.150;4.508;2023-08-20T03:13:51;15.73;;;4.05;;
72464;SDS011;60471;52.150;4.508;2023-08-20T03:16:17;15.55;;;3.53;;
72464;SDS011;60471;52.150;4.508;2023-08-20T03:18:44;20.80;;;4.85;;
72464;SDS011;60471;52.150;4.508;2023-08-20T03:21:10;19.63;;;4.03;;
72464;SDS011;60471;52.150;4.508;2023-08-20T03:23:36;18.17;;;4.15;;
72464;SDS011;60471;52.150;4.508;2023-08-20T03:26:03;20.25;;;4.05;;
72464;SDS011;60471;52.150;4.508;2023-08-20T03:28:29;18.08;;;4.03;;
72464;SDS011;60471;52.150;4.508;2023-08-20T03:30:58;16.20;;;4.13;;
72464;SDS011;60471;52.150;4.508;2023-08-20T03:33:26;25.23;;;4.60;;
72464;SDS011;60471;52.150;4.508;2023-08-20T03:35:53;23.73;;;4.80;;
72464;SDS011;60471;52.150;4.508;2023-08-20T03:38:19;18.50;;;4.63;;
72464;SDS011;60471;52.150;4.508;2023-08-20T03:40:46;14.52;;;4.38;;
72464;SDS011;60471;52.150;4.508;2023-08-20T03:43:12;21.23;;;4.07;;
72464;SDS011;60471;52.150;4.508;2023-08-20T03:45:38;21.63;;;4.57;;
72464;SDS011;60471;52.150;4.508;2023-08-20T03:48:07;16.80;;;4.30;;
72464;SDS011;60471;52.150;4.508;2023-08-20T03:50:33;18.08;;;4.15;;
72464;SDS011;60471;52.150;4.508;2023-08-20T03:52:59;20.27;;;3.95;;
72464;SDS011;60471;52.150;4.508;2023-08-20T03:55:26;21.70;;;4.93;;
72464;SDS011;60471;52.150;4.508;2023-08-20T03:57:52;25.10;;;4.40;;
72464;SDS011;60471;52.150;4.508;2023-08-20T04:00:18;21.95;;;4.03;;
72464;SDS011;60471;52.150;4.508;2023-08-20T04:02:44;18.17;;;4.05;;
72464;SDS011;60471;52.150;4.508;2023-08-20T04:05:11;20.77;;;4.35;;
72464;SDS011;60471;52.150;4.508;2023-08-20T04:07:37;19.25;;;3.58;;
72464;SDS011;60471;52.150;4.508;2023-08-20T04:10:03;20.73;;;4.20;;
72464;SDS011;60471;52.150;4.508;2023-08-20T04:12:30;23.60;;;4.50;;
72464;SDS011;60471;52.150;4.508;2023-08-20T04:14:56;15.50;;;3.70;;
72464;SDS011;60471;52.150;4.508;2023-08-20T04:17:22;17.58;;;3.53;;
72464;SDS011;60471;52.150;4.508;2023-08-20T04:19:49;22.15;;;3.85;;
72464;SDS011;60471;52.150;4.508;2023-08-20T04:22:15;17.02;;;4.22;;
72464;SDS011;60471;52.150;4.508;2023-08-20T04:24:42;18.38;;;3.42;;
72464;SDS011;60471;52.150;4.508;2023-08-20T04:27:08;19.60;;;3.90;;
72464;SDS011;60471;52.150;4.508;2023-08-20T04:29:34;21.95;;;3.78;;
72464;SDS011;60471;52.150;4.508;2023-08-20T04:32:00;20.17;;;4.22;;
72464;SDS011;60471;52.150;4.508;2023-08-20T04:34:26;17.02;;;4.00;;
72464;SDS011;60471;52.150;4.508;2023-08-20T04:36:53;18.13;;;3.55;;
72464;SDS011;60471;52.150;4.508;2023-08-20T04:39:19;20.02;;;3.88;;
72464;SDS011;60471;52.150;4.508;2023-08-20T04:41:45;17.90;;;3.78;;
72464;SDS011;60471;52.150;4.508;2023-08-20T04:44:11;19.58;;;3.72;;
72464;SDS011;60471;52.150;4.508;2023-08-20T04:46:37;16.60;;;4.10;;
72464;SDS011;60471;52.150;4.508;2023-08-20T04:49:04;18.20;;;4.07;;
72464;SDS011;60471;52.150;4.508;2023-08-20T04:51:30;22.85;;;4.10;;
72464;SDS011;60471;52.150;4.508;2023-08-20T04:53:56;24.92;;;4.53;;
72464;SDS011;60471;52.150;4.508;2023-08-20T04:56:22;18.85;;;4.60;;
72464;SDS011;60471;52.150;4.508;2023-08-20T04:58:49;15.98;;;4.38;;
72464;SDS011;60471;52.150;4.508;2023-08-20T05:01:15;16.60;;;4.20;;
72464;SDS011;60471;52.150;4.508;2023-08-20T05:03:41;19.33;;;4.43;;
72464;SDS011;60471;52.150;4.508;2023-08-20T05:06:07;24.20;;;4.97;;
72464;SDS011;60471;52.150;4.508;2023-08-20T05:08:33;20.98;;;4.75;;
72464;SDS011;60471;52.150;4.508;2023-08-20T05:11:00;24.23;;;5.28;;
72464;SDS011;60471;52.150;4.508;2023-08-20T05:13:26;18.00;;;4.70;;
72464;SDS011;60471;52.150;4.508;2023-08-20T05:15:53;21.27;;;5.45;;
72464;SDS011;60471;52.150;4.508;2023-08-20T05:18:19;18.52;;;4.80;;
72464;SDS011;60471;52.150;4.508;2023-08-20T05:20:45;24.67;;;5.72;;
72464;SDS011;60471;52.150;4.508;2023-08-20T05:23:11;17.00;;;4.88;;
72464;SDS011;60471;52.150;4.508;2023-08-20T05:25:38;17.25;;;5.32;;
72464;SDS011;60471;52.150;4.508;2023-08-20T05:28:05;20.13;;;5.20;;
72464;SDS011;60471;52.150;4.508;2023-08-20T05:30:31;23.95;;;5.30;;
72464;SDS011;60471;52.150;4.508;2023-08-20T05:32:57;17.10;;;5.07;;
72464;SDS011;60471;52.150;4.508;2023-08-20T05:35:23;20.70;;;5.18;;
72464;SDS011;60471;52.150;4.508;2023-08-20T05:37:50;20.15;;;5.03;;
72464;SDS011;60471;52.150;4.508;2023-08-20T05:40:16;20.48;;;4.78;;
72464;SDS011;60471;52.150;4.508;2023-08-20T05:42:42;24.92;;;5.15;;
72464;SDS011;60471;52.150;4.508;2023-08-20T05:45:08;18.20;;;4.97;;
72464;SDS011;60471;52.150;4.508;2023-08-20T05:47:35;16.88;;;4.78;;
72464;SDS011;60471;52.150;4.508;2023-08-20T05:50:02;22.65;;;5.05;;
72464;SDS011;60471;52.150;4.508;2023-08-20T05:52:28;17.75;;;4.82;;
72464;SDS011;60471;52.150;4.508;2023-08-20T05:54:55;21.00;;;5.00;;
72464;SDS011;60471;52.150;4.508;2023-08-20T05:57:21;16.73;;;4.20;;
72464;SDS011;60471;52.150;4.508;2023-08-20T05:59:47;19.85;;;4.40;;
72464;SDS011;60471;52.150;4.508;2023-08-20T06:02:16;18.30;;;4.70;;
72464;SDS011;60471;52.150;4.508;2023-08-20T06:04:46;21.83;;;4.45;;
72464;SDS011;60471;52.150;4.508;2023-08-20T06:07:12;17.30;;;4.78;;
72464;SDS011;60471;52.150;4.508;2023-08-20T06:09:38;21.05;;;4.65;;
72464;SDS011;60471;52.150;4.508;2023-08-20T06:12:05;23.23;;;4.82;;
72464;SDS011;60471;52.150;4.508;2023-08-20T06:14:31;20.45;;;5.07;;
72464;SDS011;60471;52.150;4.508;2023-08-20T06:16:58;16.35;;;4.78;;
72464;SDS011;60471;52.150;4.508;2023-08-20T06:19:24;18.63;;;4.55;;
72464;SDS011;60471;52.150;4.508;2023-08-20T06:21:50;18.45;;;4.68;;
72464;SDS011;60471;52.150;4.508;2023-08-20T06:24:17;17.90;;;4.57;;
72464;SDS011;60471;52.150;4.508;2023-08-20T06:26:43;20.08;;;4.68;;
72464;SDS011;60471;52.150;4.508;2023-08-20T06:29:10;19.60;;;4.70;;
72464;SDS011;60471;52.150;4.508;2023-08-20T06:31:36;14.90;;;4.18;;
72464;SDS011;60471;52.150;4.508;2023-08-20T06:34:03;18.98;;;4.53;;
72464;SDS011;60471;52.150;4.508;2023-08-20T06:36:32;17.58;;;4.43;;
72464;SDS011;60471;52.150;4.508;2023-08-20T06:38:58;20.10;;;5.22;;
72464;SDS011;60471;52.150;4.508;2023-08-20T06:41:24;23.42;;;5.03;;
72464;SDS011;60471;52.150;4.508;2023-08-20T06:43:51;22.27;;;4.85;;
72464;SDS011;60471;52.150;4.508;2023-08-20T06:46:18;22.15;;;5.18;;
72464;SDS011;60471;52.150;4.508;2023-08-20T06:48:44;27.60;;;5.65;;
72464;SDS011;60471;52.150;4.508;2023-08-20T06:51:11;19.10;;;4.47;;
72464;SDS011;60471;52.150;4.508;2023-08-20T06:53:43;17.83;;;4.65;;
72464;SDS011;60471;52.150;4.508;2023-08-20T06:56:09;20.10;;;4.38;;
72464;SDS011;60471;52.150;4.508;2023-08-20T06:58:40;22.55;;;4.50;;
72464;SDS011;60471;52.150;4.508;2023-08-20T07:01:08;20.23;;;4.43;;
72464;SDS011;60471;52.150;4.508;2023-08-20T07:03:37;13.93;;;3.67;;
72464;SDS011;60471;52.150;4.508;2023-08-20T07:06:06;19.13;;;3.85;;
72464;SDS011;60471;52.150;4.508;2023-08-20T07:08:37;14.00;;;3.30;;
72464;SDS011;60471;52.150;4.508;2023-08-20T07:11:05;21.65;;;3.53;;
72464;SDS011;60471;52.150;4.508;2023-08-20T07:13:31;18.60;;;3.33;;
72464;SDS011;60471;52.150;4.508;2023-08-20T07:15:57;16.17;;;3.00;;
72464;SDS011;60471;52.150;4.508;2023-08-20T07:18:24;16.75;;;3.92;;
72464;SDS011;60471;52.150;4.508;2023-08-20T07:20:50;16.98;;;3.20;;
72464;SDS011;60471;52.150;4.508;2023-08-20T07:23:17;15.23;;;3.67;;
72464;SDS011;60471;52.150;4.508;2023-08-20T07:25:44;17.88;;;3.05;;
72464;SDS011;60471;52.150;4.508;2023-08-20T07:28:10;18.52;;;3.13;;
72464;SDS011;60471;52.150;4.508;2023-08-20T07:30:37;18.02;;;2.88;;
72464;SDS011;60471;52.150;4.508;2023-08-20T07:33:03;15.73;;;3.17;;
72464;SDS011;60471;52.150;4.508;2023-08-20T07:35:30;17.70;;;2.88;;
72464;SDS011;60471;52.150;4.508;2023-08-20T07:37:56;20.63;;;3.17;;
72464;SDS011;60471;52.150;4.508;2023-08-20T07:40:22;13.57;;;2.50;;
72464;SDS011;60471;52.150;4.508;2023-08-20T07:42:48;17.48;;;2.55;;
72464;SDS011;60471;52.150;4.508;2023-08-20T07:45:16;15.07;;;2.90;;
72464;SDS011;60471;52.150;4.508;2023-08-20T07:47:42;15.48;;;3.10;;
72464;SDS011;60471;52.150;4.508;2023-08-20T07:50:08;17.65;;;3.08;;
72464;SDS011;60471;52.150;4.508;2023-08-20T07:52:34;16.52;;;2.55;;
72464;SDS011;60471;52.150;4.508;2023-08-20T07:55:01;21.08;;;2.80;;
72464;SDS011;60471;52.150;4.508;2023-08-20T07:57:27;16.27;;;2.58;;
72464;SDS011;60471;52.150;4.508;2023-08-20T07:59:56;16.95;;;3.58;;
72464;SDS011;60471;52.150;4.508;2023-08-20T08:02:22;17.20;;;2.83;;
72464;SDS011;60471;52.150;4.508;2023-08-20T08:04:48;14.95;;;2.63;;
72464;SDS011;60471;52.150;4.508;2023-08-20T08:07:14;14.75;;;2.35;;
72464;SDS011;60471;52.150;4.508;2023-08-20T08:09:40;19.10;;;3.05;;
72464;SDS011;60471;52.150;4.508;2023-08-20T08:12:07;15.52;;;2.63;;
72464;SDS011;60471;52.150;4.508;2023-08-20T08:14:33;15.65;;;2.55;;
72464;SDS011;60471;52.150;4.508;2023-08-20T08:16:59;13.93;;;2.55;;
72464;SDS011;60471;52.150;4.508;2023-08-20T08:19:26;20.13;;;2.60;;
72464;SDS011;60471;52.150;4.508;2023-08-20T08:21:52;19.50;;;2.78;;
72464;SDS011;60471;52.150;4.508;2023-08-20T08:24:18;14.38;;;2.90;;
72464;SDS011;60471;52.150;4.508;2023-08-20T08:26:45;15.15;;;2.58;;
72464;SDS011;60471;52.150;4.508;2023-08-20T08:29:11;13.43;;;2.30;;
72464;SDS011;60471;52.150;4.508;2023-08-20T08:31:37;13.60;;;2.70;;
72464;SDS011;60471;52.150;4.508;2023-08-20T08:34:03;13.55;;;3.08;;
72464;SDS011;60471;52.150;4.508;2023-08-20T08:36:30;12.82;;;2.50;;
72464;SDS011;60471;52.150;4.508;2023-08-20T08:38:56;16.23;;;2.80;;
72464;SDS011;60471;52.150;4.508;2023-08-20T08:41:22;17.08;;;2.65;;
72464;SDS011;60471;52.150;4.508;2023-08-20T08:43:49;15.35;;;2.60;;
72464;SDS011;60471;52.150;4.508;2023-08-20T08:46:15;14.50;;;2.45;;
72464;SDS011;60471;52.150;4.508;2023-08-20T08:48:43;14.13;;;2.55;;
72464;SDS011;60471;52.150;4.508;2023-08-20T08:51:12;13.57;;;2.25;;
72464;SDS011;60471;52.150;4.508;2023-08-20T08:53:39;14.85;;;2.25;;
72464;SDS011;60471;52.150;4.508;2023-08-20T08:56:10;15.88;;;2.38;;
72464;SDS011;60471;52.150;4.508;2023-08-20T08:58:36;11.38;;;2.42;;
72464;SDS011;60471;52.150;4.508;2023-08-20T09:01:02;12.93;;;2.33;;
72464;SDS011;60471;52.150;4.508;2023-08-20T09:03:29;14.43;;;1.92;;
72464;SDS011;60471;52.150;4.508;2023-08-20T09:05:57;10.65;;;1.90;;
72464;SDS011;60471;52.150;4.508;2023-08-20T09:08:29;12.93;;;2.58;;
72464;SDS011;60471;52.150;4.508;2023-08-20T09:10:57;13.50;;;2.20;;
72464;SDS011;60471;52.150;4.508;2023-08-20T09:16:09;15.77;;;2.60;;
72464;SDS011;60471;52.150;4.508;2023-08-20T09:18:40;15.15;;;2.45;;
72464;SDS011;60471;52.150;4.508;2023-08-20T09:21:10;10.75;;;2.30;;
72464;SDS011;60471;52.150;4.508;2023-08-20T09:23:39;11.32;;;2.05;;
72464;SDS011;60471;52.150;4.508;2023-08-20T09:26:06;14.73;;;2.22;;
72464;SDS011;60471;52.150;4.508;2023-08-20T09:28:46;14.25;;;2.50;;
72464;SDS011;60471;52.150;4.508;2023-08-20T09:31:13;13.93;;;2.25;;
72464;SDS011;60471;52.150;4.508;2023-08-20T09:33:50;11.98;;;2.42;;
72464;SDS011;60471;52.150;4.508;2023-08-20T09:36:30;11.15;;;1.73;;
72464;SDS011;60471;52.150;4.508;2023-08-20T09:38:59;14.70;;;2.55;;
72464;SDS011;60471;52.150;4.508;2023-08-20T09:41:28;11.68;;;1.85;;
72464;SDS011;60471;52.150;4.508;2023-08-20T09:43:56;12.45;;;1.90;;
72464;SDS011;60471;52.150;4.508;2023-08-20T09:46:26;9.60;;;1.77;;
72464;SDS011;60471;52.150;4.508;2023-08-20T09:48:56;9.30;;;1.90;;
72464;SDS011;60471;52.150;4.508;2023-08-20T09:51:27;14.40;;;1.80;;
72464;SDS011;60471;52.150;4.508;2023-08-20T09:54:09;11.32;;;2.03;;
72464;SDS011;60471;52.150;4.508;2023-08-20T09:56:42;12.05;;;1.92;;
72464;SDS011;60471;52.150;4.508;2023-08-20T09:59:17;9.05;;;1.80;;
72464;SDS011;60471;52.150;4.508;2023-08-20T10:01:43;11.95;;;2.13;;
72464;SDS011;60471;52.150;4.508;2023-08-20T10:04:10;12.88;;;2.10;;
72464;SDS011;60471;52.150;4.508;2023-08-20T10:06:36;10.15;;;1.83;;
72464;SDS011;60471;52.150;4.508;2023-08-20T10:09:03;16.55;;;1.90;;
72464;SDS011;60471;52.150;4.508;2023-08-20T10:11:30;11.77;;;1.88;;
72464;SDS011;60471;52.150;4.508;2023-08-20T10:13:56;11.10;;;2.15;;
72464;SDS011;60471;52.150;4.508;2023-08-20T10:16:23;11.55;;;1.90;;
72464;SDS011;60471;52.150;4.508;2023-08-20T10:18:49;12.43;;;2.10;;
72464;SDS011;60471;52.150;4.508;2023-08-20T10:21:16;10.15;;;1.70;;
72464;SDS011;60471;52.150;4.508;2023-08-20T10:23:44;8.45;;;1.48;;
72464;SDS011;60471;52.150;4.508;2023-08-20T10:26:15;9.80;;;1.67;;
72464;SDS011;60471;52.150;4.508;2023-08-20T10:28:42;9.25;;;1.80;;
72464;SDS011;60471;52.150;4.508;2023-08-20T10:31:09;11.00;;;1.83;;
72464;SDS011;60471;52.150;4.508;2023-08-20T10:36:14;13.40;;;1.85;;
72464;SDS011;60471;52.150;4.508;2023-08-20T10:38:45;10.82;;;1.52;;
72464;SDS011;60471;52.150;4.508;2023-08-20T10:41:11;10.70;;;1.65;;
72464;SDS011;60471;52.150;4.508;2023-08-20T10:43:39;8.82;;;1.85;;
72464;SDS011;60471;52.150;4.508;2023-08-20T10:46:17;16.33;;;1.95;;
72464;SDS011;60471;52.150;4.508;2023-08-20T10:49:07;8.57;;;1.73;;
72464;SDS011;60471;52.150;4.508;2023-08-20T10:51:34;11.15;;;1.80;;
72464;SDS011;60471;52.150;4.508;2023-08-20T10:54:04;16.38;;;2.20;;
72464;SDS011;60471;52.150;4.508;2023-08-20T10:59:26;7.95;;;1.70;;
72464;SDS011;60471;52.150;4.508;2023-08-20T11:01:58;12.88;;;1.70;;
72464;SDS011;60471;52.150;4.508;2023-08-20T11:04:28;8.32;;;1.70;;
72464;SDS011;60471;52.150;4.508;2023-08-20T11:06:59;8.55;;;1.70;;
72464;SDS011;60471;52.150;4.508;2023-08-20T11:09:27;13.18;;;2.00;;
72464;SDS011;60471;52.150;4.508;2023-08-20T11:11:56;10.18;;;1.77;;
72464;SDS011;60471;52.150;4.508;2023-08-20T11:14:24;11.85;;;1.63;;
72464;SDS011;60471;52.150;4.508;2023-08-20T11:16:53;11.13;;;1.83;;
72464;SDS011;60471;52.150;4.508;2023-08-20T11:19:20;12.13;;;1.70;;
72464;SDS011;60471;52.150;4.508;2023-08-20T11:21:49;9.50;;;1.50;;
72464;SDS011;60471;52.150;4.508;2023-08-20T11:24:16;8.25;;;1.52;;
72464;SDS011;60471;52.150;4.508;2023-08-20T11:26:43;10.02;;;1.60;;
72464;SDS011;60471;52.150;4.508;2023-08-20T11:29:11;8.65;;;1.27;;
72464;SDS011;60471;52.150;4.508;2023-08-20T11:31:40;7.47;;;1.40;;
72464;SDS011;60471;52.150;4.508;2023-08-20T11:34:07;8.82;;;1.38;;
72464;SDS011;60471;52.150;4.508;2023-08-20T11:36:33;13.98;;;1.92;;
72464;SDS011;60471;52.150;4.508;2023-08-20T11:39:01;10.13;;;1.60;;
72464;SDS011;60471;52.150;4.508;2023-08-20T11:41:27;7.38;;;1.27;;
72464;SDS011;60471;52.150;4.508;2023-08-20T11:43:53;12.73;;;1.67;;
72464;SDS011;60471;52.150;4.508;2023-08-20T11:46:20;10.68;;;1.40;;
72464;SDS011;60471;52.150;4.508;2023-08-20T11:49:06;7.63;;;1.30;;
72464;SDS011;60471;52.150;4.508;2023-08-20T11:51:39;7.63;;;1.20;;
72464;SDS011;60471;52.150;4.508;2023-08-20T11:54:14;9.93;;;1.55;;
72464;SDS011;60471;52.150;4.508;2023-08-20T11:56:43;11.18;;;1.48;;
72464;SDS011;60471;52.150;4.508;2023-08-20T11:59:13;11.02;;;1.70;;
72464;SDS011;60471;52.150;4.508;2023-08-20T12:01:41;7.40;;;1.63;;
72464;SDS011;60471;52.150;4.508;2023-08-20T12:04:08;7.50;;;1.40;;
72464;SDS011;60471;52.150;4.508;2023-08-20T12:06:36;9.13;;;1.52;;
72464;SDS011;60471;52.150;4.508;2023-08-20T12:09:22;12.00;;;1.95;;
72464;SDS011;60471;52.150;4.508;2023-08-20T12:11:50;11.43;;;1.65;;
72464;SDS011;60471;52.150;4.508;2023-08-20T12:14:18;8.35;;;1.40;;
72464;SDS011;60471;52.150;4.508;2023-08-20T12:16:45;12.32;;;2.00;;
72464;SDS011;60471;52.150;4.508;2023-08-20T12:19:12;8.07;;;1.33;;
72464;SDS011;60471;52.150;4.508;2023-08-20T12:21:41;6.15;;;1.38;;
72464;SDS011;60471;52.150;4.508;2023-08-20T12:24:09;6.32;;;1.20;;
72464;SDS011;60471;52.150;4.508;2023-08-20T12:26:36;7.15;;;1.25;;
72464;SDS011;60471;52.150;4.508;2023-08-20T12:29:03;8.45;;;1.58;;
72464;SDS011;60471;52.150;4.508;2023-08-20T12:31:30;8.05;;;1.30;;
72464;SDS011;60471;52.150;4.508;2023-08-20T12:34:00;10.13;;;1.73;;
72464;SDS011;60471;52.150;4.508;2023-08-20T12:36:28;8.95;;;1.48;;
72464;SDS011;60471;52.150;4.508;2023-08-20T12:38:55;11.00;;;1.65;;
72464;SDS011;60471;52.150;4.508;2023-08-20T12:41:22;9.45;;;1.40;;
72464;SDS011;60471;52.150;4.508;2023-08-20T12:43:49;9.75;;;1.30;;
72464;SDS011;60471;52.150;4.508;2023-08-20T12:46:15;9.35;;;1.73;;
72464;SDS011;60471;52.150;4.508;2023-08-20T12:48:42;8.85;;;1.30;;
72464;SDS011;60471;52.150;4.508;2023-08-20T12:51:09;8.77;;;1.40;;
72464;SDS011;60471;52.150;4.508;2023-08-20T12:53:39;7.97;;;1.33;;
72464;SDS011;60471;52.150;4.508;2023-08-20T12:56:06;8.77;;;1.30;;
72464;SDS011;60471;52.150;4.508;2023-08-20T12:58:32;6.55;;;1.13;;
72464;SDS011;60471;52.150;4.508;2023-08-20T13:00:58;7.97;;;1.20;;
72464;SDS011;60471;52.150;4.508;2023-08-20T13:03:25;8.65;;;1.45;;
72464;SDS011;60471;52.150;4.508;2023-08-20T13:05:53;7.60;;;1.20;;
72464;SDS011;60471;52.150;4.508;2023-08-20T13:08:22;6.20;;;1.10;;
72464;SDS011;60471;52.150;4.508;2023-08-20T13:10:53;8.35;;;1.30;;
72464;SDS011;60471;52.150;4.508;2023-08-20T13:13:22;5.78;;;1.02;;
72464;SDS011;60471;52.150;4.508;2023-08-20T13:15:50;8.25;;;1.60;;
72464;SDS011;60471;52.150;4.508;2023-08-20T13:18:19;8.88;;;1.40;;
72464;SDS011;60471;52.150;4.508;2023-08-20T13:20:51;8.88;;;1.50;;
72464;SDS011;60471;52.150;4.508;2023-08-20T13:23:20;9.15;;;1.88;;
72464;SDS011;60471;52.150;4.508;2023-08-20T13:25:47;7.88;;;1.30;;
72464;SDS011;60471;52.150;4.508;2023-08-20T13:28:13;7.47;;;1.40;;
72464;SDS011;60471;52.150;4.508;2023-08-20T13:30:39;6.53;;;1.27;;
72464;SDS011;60471;52.150;4.508;2023-08-20T13:33:06;7.72;;;1.30;;
72464;SDS011;60471;52.150;4.508;2023-08-20T13:35:32;10.68;;;1.45;;
72464;SDS011;60471;52.150;4.508;2023-08-20T13:37:59;7.38;;;1.42;;
72464;SDS011;60471;52.150;4.508;2023-08-20T13:40:25;7.43;;;1.50;;
72464;SDS011;60471;52.150;4.508;2023-08-20T13:42:52;10.40;;;1.30;;
72464;SDS011;60471;52.150;4.508;2023-08-20T13:45:18;10.25;;;1.55;;
72464;SDS011;60471;52.150;4.508;2023-08-20T13:47:44;7.70;;;1.27;;
72464;SDS011;60471;52.150;4.508;2023-08-20T13:50:11;9.05;;;1.58;;
72464;SDS011;60471;52.150;4.508;2023-08-20T13:52:37;5.45;;;1.42;;
72464;SDS011;60471;52.150;4.508;2023-08-20T13:55:03;8.98;;;1.30;;
72464;SDS011;60471;52.150;4.508;2023-08-20T13:57:30;6.90;;;1.25;;
72464;SDS011;60471;52.150;4.508;2023-08-20T13:59:57;8.90;;;1.52;;
72464;SDS011;60471;52.150;4.508;2023-08-20T14:02:24;6.88;;;1.20;;
72464;SDS011;60471;52.150;4.508;2023-08-20T14:04:50;5.22;;;1.17;;
72464;SDS011;60471;52.150;4.508;2023-08-20T14:07:17;8.60;;;1.15;;
72464;SDS011;60471;52.150;4.508;2023-08-20T14:09:44;7.25;;;1.40;;
72464;SDS011;60471;52.150;4.508;2023-08-20T14:12:10;10.88;;;1.58;;
72464;SDS011;60471;52.150;4.508;2023-08-20T14:14:36;9.75;;;1.30;;
72464;SDS011;60471;52.150;4.508;2023-08-20T14:17:02;8.45;;;1.67;;
72464;SDS011;60471;52.150;4.508;2023-08-20T14:19:29;9.57;;;1.08;;
72464;SDS011;60471;52.150;4.508;2023-08-20T14:21:55;5.00;;;1.08;;
72464;SDS011;60471;52.150;4.508;2023-08-20T14:24:21;9.20;;;1.20;;
72464;SDS011;60471;52.150;4.508;2023-08-20T14:26:47;6.80;;;1.23;;
72464;SDS011;60471;52.150;4.508;2023-08-20T14:29:13;8.75;;;1.33;;
72464;SDS011;60471;52.150;4.508;2023-08-20T14:31:40;7.97;;;1.20;;
72464;SDS011;60471;52.150;4.508;2023-08-20T14:34:07;7.55;;;1.30;;
72464;SDS011;60471;52.150;4.508;2023-08-20T14:36:34;9.15;;;1.27;;
72464;SDS011;60471;52.150;4.508;2023-08-20T14:39:00;6.75;;;1.20;;
72464;SDS011;60471;52.150;4.508;2023-08-20T14:41:26;7.68;;;1.35;;
72464;SDS011;60471;52.150;4.508;2023-08-20T14:43:52;10.13;;;1.35;;
72464;SDS011;60471;52.150;4.508;2023-08-20T14:46:18;5.88;;;1.15;;
72464;SDS011;60471;52.150;4.508;2023-08-20T14:48:45;7.63;;;1.20;;
72464;SDS011;60471;52.150;4.508;2023-08-20T14:51:11;6.25;;;1.42;;
72464;SDS011;60471;52.150;4.508;2023-08-20T14:53:38;8.68;;;1.17;;
72464;SDS011;60471;52.150;4.508;2023-08-20T14:56:04;6.40;;;1.35;;
72464;SDS011;60471;52.150;4.508;2023-08-20T14:58:31;6.45;;;1.20;;